sensor_id;sensor_type;location;lat;lon;timestamp;P1;durP1;ratioP1;P2;durP2;ratioP2
59093;SDS011;44880;52.814;18.270;2023-04-01T00:00:28;25.10;;;13.50;;
59093;SDS011;44880;52.814;18.270;2023-04-01T00:03:15;23.00;;;14.00;;
59093;SDS011;44880;52.814;18.270;2023-04-01T00:05:47;24.30;;;13.10;;
59093;SDS011;44880;52.814;18.270;2023-04-01T00:08:19;24.20;;;13.60;;
59093;SDS011;44880;52.814;18.270;2023-04-01T00:10:51;27.60;;;15.50;;
59093;SDS011;44880;52.814;18.270;2023-04-01T00:13:23;23.40;;;12.70;;
59093;SDS011;44880;52.814;18.270;2023-04-01T00:15:55;22.10;;;13.50;;
59093;SDS011;44880;52.814;18.270;2023-04-01T00:18:27;24.20;;;14.10;;
59093;SDS011;44880;52.814;18.270;2023-04-01T00:20:59;23.10;;;12.70;;
59093;SDS011;44880;52.814;18.270;2023-04-01T00:23:31;22.30;;;13.00;;
59093;SDS011;44880;52.814;18.270;2023-04-01T00:26:03;22.00;;;11.80;;
59093;SDS011;44880;52.814;18.270;2023-04-01T00:28:35;23.20;;;12.40;;
59093;SDS011;44880;52.814;18.270;2023-04-01T00:31:08;20.40;;;11.10;;
59093;SDS011;44880;52.814;18.270;2023-04-01T00:33:40;21.70;;;12.30;;
59093;SDS011;44880;52.814;18.270;2023-04-01T00:36:12;20.90;;;10.70;;
59093;SDS011;44880;52.814;18.270;2023-04-01T00:38:46;18.60;;;9.70;;
59093;SDS011;44880;52.814;18.270;2023-04-01T00:41:18;19.40;;;10.30;;
59093;SDS011;44880;52.814;18.270;2023-04-01T00:43:50;18.30;;;10.50;;
59093;SDS011;44880;52.814;18.270;2023-04-01T00:46:27;17.60;;;9.80;;
59093;SDS011;44880;52.814;18.270;2023-04-01T00:48:59;18.80;;;10.80;;
59093;SDS011;44880;52.814;18.270;2023-04-01T00:51:31;19.80;;;11.90;;
59093;SDS011;44880;52.814;18.270;2023-04-01T00:54:06;19.70;;;10.90;;
59093;SDS011;44880;52.814;18.270;2023-04-01T00:56:39;17.10;;;9.40;;
59093;SDS011;44880;52.814;18.270;2023-04-01T00:59:13;18.00;;;10.10;;
59093;SDS011;44880;52.814;18.270;2023-04-01T01:01:48;18.10;;;10.00;;
59093;SDS011;44880;52.814;18.270;2023-04-01T01:04:24;17.80;;;10.20;;
59093;SDS011;44880;52.814;18.270;2023-04-01T01:07:03;17.00;;;9.80;;
59093;SDS011;44880;52.814;18.270;2023-04-01T01:09:43;18.60;;;10.00;;
59093;SDS011;44880;52.814;18.270;2023-04-01T01:12:21;16.10;;;8.70;;
59093;SDS011;44880;52.814;18.270;2023-04-01T01:15:03;16.90;;;9.30;;
59093;SDS011;44880;52.814;18.270;2023-04-01T01:17:44;16.60;;;9.50;;
59093;SDS011;44880;52.814;18.270;2023-04-01T01:20:35;16.80;;;9.10;;
59093;SDS011;44880;52.814;18.270;2023-04-01T01:23:23;19.00;;;9.90;;
59093;SDS011;44880;52.814;18.270;2023-04-01T01:26:15;15.40;;;8.40;;
59093;SDS011;44880;52.814;18.270;2023-04-01T01:29:00;13.90;;;7.60;;
59093;SDS011;44880;52.814;18.270;2023-04-01T01:31:40;14.30;;;7.50;;
59093;SDS011;44880;52.814;18.270;2023-04-01T01:34:17;11.50;;;6.20;;
59093;SDS011;44880;52.814;18.270;2023-04-01T01:36:53;11.40;;;6.10;;
59093;SDS011;44880;52.814;18.270;2023-04-01T01:39:27;11.60;;;5.90;;
59093;SDS011;44880;52.814;18.270;2023-04-01T01:42:03;12.60;;;5.90;;
59093;SDS011;44880;52.814;18.270;2023-04-01T01:44:36;10.50;;;5.20;;
59093;SDS011;44880;52.814;18.270;2023-04-01T01:47:10;11.00;;;5.70;;
59093;SDS011;44880;52.814;18.270;2023-04-01T01:49:43;12.60;;;5.50;;
59093;SDS011;44880;52.814;18.270;2023-04-01T01:52:16;10.50;;;5.10;;
59093;SDS011;44880;52.814;18.270;2023-04-01T01:54:49;10.10;;;5.30;;
59093;SDS011;44880;52.814;18.270;2023-04-01T01:57:22;10.80;;;5.50;;
59093;SDS011;44880;52.814;18.270;2023-04-01T02:00:00;10.80;;;5.50;;
59093;SDS011;44880;52.814;18.270;2023-04-01T02:02:41;10.60;;;5.10;;
59093;SDS011;44880;52.814;18.270;2023-04-01T02:05:16;9.70;;;4.80;;
59093;SDS011;44880;52.814;18.270;2023-04-01T02:07:51;10.20;;;5.10;;
59093;SDS011;44880;52.814;18.270;2023-04-01T02:10:25;10.30;;;4.60;;
59093;SDS011;44880;52.814;18.270;2023-04-01T02:12:59;9.50;;;4.50;;
59093;SDS011;44880;52.814;18.270;2023-04-01T02:15:35;9.60;;;4.50;;
59093;SDS011;44880;52.814;18.270;2023-04-01T02:18:10;9.40;;;4.30;;
59093;SDS011;44880;52.814;18.270;2023-04-01T02:20:42;8.60;;;4.10;;
59093;SDS011;44880;52.814;18.270;2023-04-01T02:23:15;10.70;;;5.00;;
59093;SDS011;44880;52.814;18.270;2023-04-01T02:25:47;10.70;;;4.50;;
59093;SDS011;44880;52.814;18.270;2023-04-01T02:28:19;9.10;;;4.40;;
59093;SDS011;44880;52.814;18.270;2023-04-01T02:30:51;9.50;;;5.00;;
59093;SDS011;44880;52.814;18.270;2023-04-01T02:33:23;10.40;;;5.10;;
59093;SDS011;44880;52.814;18.270;2023-04-01T02:35:55;9.50;;;4.90;;
59093;SDS011;44880;52.814;18.270;2023-04-01T02:38:27;9.60;;;5.40;;
59093;SDS011;44880;52.814;18.270;2023-04-01T02:40:59;9.50;;;4.80;;
59093;SDS011;44880;52.814;18.270;2023-04-01T02:43:31;10.50;;;5.10;;
59093;SDS011;44880;52.814;18.270;2023-04-01T02:46:04;10.30;;;5.20;;
59093;SDS011;44880;52.814;18.270;2023-04-01T02:48:35;10.60;;;5.20;;
59093;SDS011;44880;52.814;18.270;2023-04-01T02:51:07;9.90;;;4.40;;
59093;SDS011;44880;52.814;18.270;2023-04-01T02:53:39;9.70;;;4.60;;
59093;SDS011;44880;52.814;18.270;2023-04-01T02:56:11;10.50;;;4.50;;
59093;SDS011;44880;52.814;18.270;2023-04-01T02:58:43;8.90;;;4.40;;
59093;SDS011;44880;52.814;18.270;2023-04-01T03:01:14;9.10;;;4.10;;
59093;SDS011;44880;52.814;18.270;2023-04-01T03:03:46;9.10;;;3.90;;
59093;SDS011;44880;52.814;18.270;2023-04-01T03:06:18;9.00;;;4.30;;
59093;SDS011;44880;52.814;18.270;2023-04-01T03:08:49;9.60;;;4.90;;
59093;SDS011;44880;52.814;18.270;2023-04-01T03:11:21;9.80;;;4.70;;
59093;SDS011;44880;52.814;18.270;2023-04-01T03:13:54;9.70;;;4.90;;
59093;SDS011;44880;52.814;18.270;2023-04-01T03:16:26;11.10;;;5.50;;
59093;SDS011;44880;52.814;18.270;2023-04-01T03:18:58;12.70;;;6.50;;
59093;SDS011;44880;52.814;18.270;2023-04-01T03:21:30;13.10;;;6.80;;
59093;SDS011;44880;52.814;18.270;2023-04-01T03:24:02;12.30;;;6.50;;
59093;SDS011;44880;52.814;18.270;2023-04-01T03:26:35;13.30;;;6.90;;
59093;SDS011;44880;52.814;18.270;2023-04-01T03:29:06;13.40;;;6.70;;
59093;SDS011;44880;52.814;18.270;2023-04-01T03:31:38;10.90;;;6.30;;
59093;SDS011;44880;52.814;18.270;2023-04-01T03:34:10;11.90;;;6.20;;
59093;SDS011;44880;52.814;18.270;2023-04-01T03:36:43;11.60;;;5.40;;
59093;SDS011;44880;52.814;18.270;2023-04-01T03:39:14;11.40;;;5.60;;
59093;SDS011;44880;52.814;18.270;2023-04-01T03:41:47;11.60;;;6.30;;
59093;SDS011;44880;52.814;18.270;2023-04-01T03:44:18;13.40;;;7.60;;
59093;SDS011;44880;52.814;18.270;2023-04-01T03:49:20;11.90;;;5.80;;
59093;SDS011;44880;52.814;18.270;2023-04-01T03:51:52;12.90;;;6.30;;
59093;SDS011;44880;52.814;18.270;2023-04-01T03:54:24;11.90;;;5.50;;
59093;SDS011;44880;52.814;18.270;2023-04-01T03:56:56;11.40;;;5.20;;
59093;SDS011;44880;52.814;18.270;2023-04-01T03:59:28;11.00;;;5.20;;
59093;SDS011;44880;52.814;18.270;2023-04-01T04:01:59;10.50;;;5.10;;
59093;SDS011;44880;52.814;18.270;2023-04-01T04:04:31;10.30;;;5.50;;
59093;SDS011;44880;52.814;18.270;2023-04-01T04:09:43;11.30;;;4.90;;
59093;SDS011;44880;52.814;18.270;2023-04-01T04:12:16;11.50;;;6.50;;
59093;SDS011;44880;52.814;18.270;2023-04-01T04:14:47;11.50;;;5.90;;
59093;SDS011;44880;52.814;18.270;2023-04-01T04:17:19;12.00;;;5.00;;
59093;SDS011;44880;52.814;18.270;2023-04-01T04:19:51;12.10;;;5.40;;
59093;SDS011;44880;52.814;18.270;2023-04-01T04:22:23;13.20;;;5.60;;
59093;SDS011;44880;52.814;18.270;2023-04-01T04:24:56;9.70;;;4.60;;
59093;SDS011;44880;52.814;18.270;2023-04-01T04:27:27;10.70;;;5.10;;
59093;SDS011;44880;52.814;18.270;2023-04-01T04:30:07;10.00;;;4.70;;
59093;SDS011;44880;52.814;18.270;2023-04-01T04:32:40;12.30;;;5.90;;
59093;SDS011;44880;52.814;18.270;2023-04-01T04:35:13;11.60;;;6.00;;
59093;SDS011;44880;52.814;18.270;2023-04-01T04:37:45;15.00;;;7.60;;
59093;SDS011;44880;52.814;18.270;2023-04-01T04:40:17;14.90;;;7.10;;
59093;SDS011;44880;52.814;18.270;2023-04-01T04:42:49;17.20;;;11.10;;
59093;SDS011;44880;52.814;18.270;2023-04-01T04:45:21;16.90;;;9.80;;
59093;SDS011;44880;52.814;18.270;2023-04-01T04:47:57;17.00;;;9.80;;
59093;SDS011;44880;52.814;18.270;2023-04-01T04:50:30;16.40;;;9.60;;
59093;SDS011;44880;52.814;18.270;2023-04-01T04:53:01;17.00;;;9.50;;
59093;SDS011;44880;52.814;18.270;2023-04-01T04:58:24;14.30;;;7.90;;
59093;SDS011;44880;52.814;18.270;2023-04-01T05:00:56;17.10;;;8.40;;
59093;SDS011;44880;52.814;18.270;2023-04-01T05:03:31;13.00;;;7.10;;
59093;SDS011;44880;52.814;18.270;2023-04-01T05:06:04;13.20;;;6.70;;
59093;SDS011;44880;52.814;18.270;2023-04-01T05:08:36;11.20;;;5.10;;
59093;SDS011;44880;52.814;18.270;2023-04-01T05:11:09;11.50;;;5.40;;
59093;SDS011;44880;52.814;18.270;2023-04-01T05:13:43;12.00;;;5.30;;
59093;SDS011;44880;52.814;18.270;2023-04-01T05:16:16;11.80;;;5.60;;
59093;SDS011;44880;52.814;18.270;2023-04-01T05:18:49;12.00;;;5.70;;
59093;SDS011;44880;52.814;18.270;2023-04-01T05:21:21;10.30;;;4.70;;
59093;SDS011;44880;52.814;18.270;2023-04-01T05:23:53;12.00;;;5.70;;
59093;SDS011;44880;52.814;18.270;2023-04-01T05:26:25;11.90;;;5.20;;
59093;SDS011;44880;52.814;18.270;2023-04-01T05:28:57;14.10;;;6.10;;
59093;SDS011;44880;52.814;18.270;2023-04-01T05:31:29;13.90;;;6.10;;
59093;SDS011;44880;52.814;18.270;2023-04-01T05:34:01;14.60;;;5.90;;
59093;SDS011;44880;52.814;18.270;2023-04-01T05:36:32;13.90;;;6.10;;
59093;SDS011;44880;52.814;18.270;2023-04-01T05:39:04;15.80;;;7.40;;
59093;SDS011;44880;52.814;18.270;2023-04-01T05:41:36;17.50;;;8.20;;
59093;SDS011;44880;52.814;18.270;2023-04-01T05:44:10;16.80;;;7.70;;
59093;SDS011;44880;52.814;18.270;2023-04-01T05:46:42;16.70;;;7.80;;
59093;SDS011;44880;52.814;18.270;2023-04-01T05:49:20;16.00;;;7.50;;
59093;SDS011;44880;52.814;18.270;2023-04-01T05:51:52;17.20;;;7.60;;
59093;SDS011;44880;52.814;18.270;2023-04-01T05:54:24;13.90;;;6.50;;
59093;SDS011;44880;52.814;18.270;2023-04-01T05:56:56;13.50;;;6.10;;
59093;SDS011;44880;52.814;18.270;2023-04-01T05:59:27;14.10;;;6.50;;
59093;SDS011;44880;52.814;18.270;2023-04-01T06:02:01;17.50;;;7.90;;
59093;SDS011;44880;52.814;18.270;2023-04-01T06:04:34;14.10;;;6.90;;
59093;SDS011;44880;52.814;18.270;2023-04-01T06:07:12;15.00;;;6.90;;
59093;SDS011;44880;52.814;18.270;2023-04-01T06:09:45;14.10;;;6.20;;
59093;SDS011;44880;52.814;18.270;2023-04-01T06:12:24;15.40;;;6.80;;
59093;SDS011;44880;52.814;18.270;2023-04-01T06:15:17;15.60;;;6.90;;
59093;SDS011;44880;52.814;18.270;2023-04-01T06:21:04;15.40;;;7.80;;
59093;SDS011;44880;52.814;18.270;2023-04-01T06:23:47;16.90;;;7.80;;
59093;SDS011;44880;52.814;18.270;2023-04-01T06:26:27;14.70;;;6.40;;
59093;SDS011;44880;52.814;18.270;2023-04-01T06:29:10;15.50;;;7.10;;
59093;SDS011;44880;52.814;18.270;2023-04-01T06:32:01;15.90;;;7.30;;
59093;SDS011;44880;52.814;18.270;2023-04-01T06:37:45;18.00;;;8.20;;
59093;SDS011;44880;52.814;18.270;2023-04-01T06:40:40;16.60;;;7.80;;
59093;SDS011;44880;52.814;18.270;2023-04-01T06:43:18;15.30;;;8.00;;
59093;SDS011;44880;52.814;18.270;2023-04-01T06:46:14;16.50;;;7.60;;
59093;SDS011;44880;52.814;18.270;2023-04-01T06:49:16;16.60;;;7.90;;
59093;SDS011;44880;52.814;18.270;2023-04-01T06:52:25;15.50;;;8.20;;
59093;SDS011;44880;52.814;18.270;2023-04-01T06:55:39;15.90;;;7.70;;
59093;SDS011;44880;52.814;18.270;2023-04-01T06:58:20;16.20;;;8.20;;
59093;SDS011;44880;52.814;18.270;2023-04-01T07:00:56;15.80;;;7.30;;
59093;SDS011;44880;52.814;18.270;2023-04-01T07:03:31;16.50;;;7.80;;
59093;SDS011;44880;52.814;18.270;2023-04-01T07:06:10;17.10;;;8.90;;
59093;SDS011;44880;52.814;18.270;2023-04-01T07:08:51;15.80;;;7.40;;
59093;SDS011;44880;52.814;18.270;2023-04-01T07:11:26;16.00;;;8.30;;
59093;SDS011;44880;52.814;18.270;2023-04-01T07:14:22;16.70;;;7.90;;
59093;SDS011;44880;52.814;18.270;2023-04-01T07:16:58;15.60;;;7.80;;
59093;SDS011;44880;52.814;18.270;2023-04-01T07:19:33;16.00;;;8.80;;
59093;SDS011;44880;52.814;18.270;2023-04-01T07:22:14;16.30;;;7.60;;
59093;SDS011;44880;52.814;18.270;2023-04-01T07:25:16;15.00;;;7.30;;
59093;SDS011;44880;52.814;18.270;2023-04-01T07:27:59;17.30;;;8.60;;
59093;SDS011;44880;52.814;18.270;2023-04-01T07:30:39;16.00;;;8.20;;
59093;SDS011;44880;52.814;18.270;2023-04-01T07:33:16;16.30;;;8.10;;
59093;SDS011;44880;52.814;18.270;2023-04-01T07:35:55;15.40;;;7.90;;
59093;SDS011;44880;52.814;18.270;2023-04-01T07:38:33;17.00;;;8.00;;
59093;SDS011;44880;52.814;18.270;2023-04-01T07:41:12;14.80;;;7.70;;
59093;SDS011;44880;52.814;18.270;2023-04-01T07:43:54;14.50;;;7.30;;
59093;SDS011;44880;52.814;18.270;2023-04-01T07:46:40;14.20;;;7.40;;
59093;SDS011;44880;52.814;18.270;2023-04-01T07:49:24;15.80;;;7.20;;
59093;SDS011;44880;52.814;18.270;2023-04-01T07:52:01;14.80;;;7.20;;
59093;SDS011;44880;52.814;18.270;2023-04-01T07:54:39;12.20;;;6.60;;
59093;SDS011;44880;52.814;18.270;2023-04-01T07:57:16;12.80;;;7.10;;
59093;SDS011;44880;52.814;18.270;2023-04-01T07:59:56;13.50;;;8.10;;
59093;SDS011;44880;52.814;18.270;2023-04-01T08:03:07;14.90;;;7.60;;
59093;SDS011;44880;52.814;18.270;2023-04-01T08:05:53;14.80;;;7.30;;
59093;SDS011;44880;52.814;18.270;2023-04-01T08:08:35;14.30;;;7.50;;
59093;SDS011;44880;52.814;18.270;2023-04-01T08:11:37;14.80;;;8.00;;
59093;SDS011;44880;52.814;18.270;2023-04-01T08:14:34;14.60;;;7.60;;
59093;SDS011;44880;52.814;18.270;2023-04-01T08:17:51;16.20;;;8.00;;
59093;SDS011;44880;52.814;18.270;2023-04-01T08:20:34;14.50;;;7.90;;
59093;SDS011;44880;52.814;18.270;2023-04-01T08:23:15;13.80;;;7.40;;
59093;SDS011;44880;52.814;18.270;2023-04-01T08:25:51;14.70;;;7.80;;
59093;SDS011;44880;52.814;18.270;2023-04-01T08:28:29;14.80;;;8.20;;
59093;SDS011;44880;52.814;18.270;2023-04-01T08:31:05;14.60;;;8.50;;
59093;SDS011;44880;52.814;18.270;2023-04-01T08:33:38;13.90;;;8.00;;
59093;SDS011;44880;52.814;18.270;2023-04-01T08:36:14;15.50;;;7.90;;
59093;SDS011;44880;52.814;18.270;2023-04-01T08:38:54;13.90;;;7.20;;
59093;SDS011;44880;52.814;18.270;2023-04-01T08:45:01;11.90;;;6.20;;
59093;SDS011;44880;52.814;18.270;2023-04-01T08:51:12;11.70;;;6.00;;
59093;SDS011;44880;52.814;18.270;2023-04-01T08:57:15;9.30;;;4.90;;
59093;SDS011;44880;52.814;18.270;2023-04-01T09:00:21;10.30;;;5.00;;
59093;SDS011;44880;52.814;18.270;2023-04-01T09:03:37;11.00;;;5.60;;
59093;SDS011;44880;52.814;18.270;2023-04-01T09:06:28;11.30;;;4.90;;
59093;SDS011;44880;52.814;18.270;2023-04-01T09:09:13;10.20;;;4.90;;
59093;SDS011;44880;52.814;18.270;2023-04-01T09:15:00;11.10;;;5.50;;
59093;SDS011;44880;52.814;18.270;2023-04-01T09:18:02;11.80;;;5.30;;
59093;SDS011;44880;52.814;18.270;2023-04-01T09:20:50;12.00;;;6.20;;
59093;SDS011;44880;52.814;18.270;2023-04-01T09:23:32;10.40;;;5.60;;
59093;SDS011;44880;52.814;18.270;2023-04-01T09:26:39;10.90;;;4.70;;
59093;SDS011;44880;52.814;18.270;2023-04-01T09:29:22;9.50;;;4.90;;
59093;SDS011;44880;52.814;18.270;2023-04-01T09:32:10;10.50;;;5.50;;
59093;SDS011;44880;52.814;18.270;2023-04-01T09:35:24;10.40;;;5.00;;
59093;SDS011;44880;52.814;18.270;2023-04-01T09:40:41;10.90;;;5.80;;
59093;SDS011;44880;52.814;18.270;2023-04-01T09:46:06;15.10;;;8.40;;
59093;SDS011;44880;52.814;18.270;2023-04-01T09:49:00;15.20;;;9.40;;
59093;SDS011;44880;52.814;18.270;2023-04-01T09:51:56;15.60;;;10.10;;
59093;SDS011;44880;52.814;18.270;2023-04-01T09:54:45;15.60;;;8.60;;
59093;SDS011;44880;52.814;18.270;2023-04-01T09:57:56;13.20;;;7.20;;
59093;SDS011;44880;52.814;18.270;2023-04-01T10:01:19;12.90;;;7.80;;
59093;SDS011;44880;52.814;18.270;2023-04-01T10:04:31;14.50;;;7.70;;
59093;SDS011;44880;52.814;18.270;2023-04-01T10:07:35;14.20;;;8.80;;
59093;SDS011;44880;52.814;18.270;2023-04-01T10:16:58;13.40;;;8.00;;
59093;SDS011;44880;52.814;18.270;2023-04-01T10:19:51;13.10;;;7.40;;
59093;SDS011;44880;52.814;18.270;2023-04-01T10:28:47;12.70;;;7.30;;
59093;SDS011;44880;52.814;18.270;2023-04-01T10:31:45;12.60;;;7.20;;
59093;SDS011;44880;52.814;18.270;2023-04-01T10:34:49;13.20;;;7.60;;
59093;SDS011;44880;52.814;18.270;2023-04-01T10:37:43;12.20;;;7.70;;
59093;SDS011;44880;52.814;18.270;2023-04-01T10:40:48;13.90;;;7.80;;
59093;SDS011;44880;52.814;18.270;2023-04-01T10:53:46;13.60;;;7.90;;
59093;SDS011;44880;52.814;18.270;2023-04-01T10:57:00;13.70;;;7.70;;
59093;SDS011;44880;52.814;18.270;2023-04-01T11:03:13;14.80;;;9.00;;
59093;SDS011;44880;52.814;18.270;2023-04-01T11:12:46;12.50;;;7.30;;
59093;SDS011;44880;52.814;18.270;2023-04-01T11:16:01;13.30;;;7.20;;
59093;SDS011;44880;52.814;18.270;2023-04-01T11:22:18;14.20;;;8.30;;
59093;SDS011;44880;52.814;18.270;2023-04-01T11:28:55;16.80;;;10.60;;
59093;SDS011;44880;52.814;18.270;2023-04-01T11:31:52;15.50;;;10.30;;
59093;SDS011;44880;52.814;18.270;2023-04-01T11:34:42;14.90;;;10.10;;
59093;SDS011;44880;52.814;18.270;2023-04-01T11:37:35;13.30;;;8.40;;
59093;SDS011;44880;52.814;18.270;2023-04-01T11:40:45;13.90;;;8.90;;
59093;SDS011;44880;52.814;18.270;2023-04-01T11:43:39;15.30;;;9.40;;
59093;SDS011;44880;52.814;18.270;2023-04-01T11:46:25;14.90;;;8.80;;
59093;SDS011;44880;52.814;18.270;2023-04-01T11:49:06;14.30;;;8.90;;
59093;SDS011;44880;52.814;18.270;2023-04-01T11:52:05;15.50;;;9.40;;
59093;SDS011;44880;52.814;18.270;2023-04-01T11:54:51;15.80;;;8.80;;
59093;SDS011;44880;52.814;18.270;2023-04-01T11:57:50;13.90;;;8.40;;
59093;SDS011;44880;52.814;18.270;2023-04-01T12:00:35;14.40;;;10.00;;
59093;SDS011;44880;52.814;18.270;2023-04-01T12:03:20;17.20;;;11.20;;
59093;SDS011;44880;52.814;18.270;2023-04-01T12:06:00;18.80;;;11.90;;
59093;SDS011;44880;52.814;18.270;2023-04-01T12:08:38;19.10;;;12.80;;
59093;SDS011;44880;52.814;18.270;2023-04-01T12:11:17;19.40;;;12.00;;
59093;SDS011;44880;52.814;18.270;2023-04-01T12:13:55;17.30;;;11.20;;
59093;SDS011;44880;52.814;18.270;2023-04-01T12:19:26;16.40;;;10.90;;
59093;SDS011;44880;52.814;18.270;2023-04-01T12:22:29;18.40;;;10.90;;
59093;SDS011;44880;52.814;18.270;2023-04-01T12:25:18;15.70;;;10.90;;
59093;SDS011;44880;52.814;18.270;2023-04-01T12:27:56;16.70;;;11.20;;
59093;SDS011;44880;52.814;18.270;2023-04-01T12:30:39;15.90;;;10.50;;
59093;SDS011;44880;52.814;18.270;2023-04-01T12:33:26;15.10;;;9.50;;
59093;SDS011;44880;52.814;18.270;2023-04-01T12:36:08;15.30;;;10.20;;
59093;SDS011;44880;52.814;18.270;2023-04-01T12:38:48;18.30;;;10.80;;
59093;SDS011;44880;52.814;18.270;2023-04-01T12:41:29;16.00;;;9.80;;
59093;SDS011;44880;52.814;18.270;2023-04-01T12:44:08;13.10;;;8.20;;
59093;SDS011;44880;52.814;18.270;2023-04-01T12:47:04;12.90;;;8.20;;
59093;SDS011;44880;52.814;18.270;2023-04-01T12:53:07;11.80;;;7.50;;
59093;SDS011;44880;52.814;18.270;2023-04-01T12:56:06;15.30;;;8.70;;
59093;SDS011;44880;52.814;18.270;2023-04-01T12:58:56;14.10;;;8.60;;
59093;SDS011;44880;52.814;18.270;2023-04-01T13:01:48;13.70;;;8.60;;
59093;SDS011;44880;52.814;18.270;2023-04-01T13:04:49;16.40;;;10.70;;
59093;SDS011;44880;52.814;18.270;2023-04-01T13:07:48;13.70;;;9.10;;
59093;SDS011;44880;52.814;18.270;2023-04-01T13:10:49;13.10;;;8.80;;
59093;SDS011;44880;52.814;18.270;2023-04-01T13:13:55;14.00;;;9.90;;
59093;SDS011;44880;52.814;18.270;2023-04-01T13:16:45;13.70;;;10.00;;
59093;SDS011;44880;52.814;18.270;2023-04-01T13:19:25;14.60;;;9.10;;
59093;SDS011;44880;52.814;18.270;2023-04-01T13:22:03;11.60;;;8.40;;
59093;SDS011;44880;52.814;18.270;2023-04-01T13:24:39;12.80;;;8.60;;
59093;SDS011;44880;52.814;18.270;2023-04-01T13:27:34;12.20;;;8.40;;
59093;SDS011;44880;52.814;18.270;2023-04-01T13:30:19;11.90;;;8.00;;
59093;SDS011;44880;52.814;18.270;2023-04-01T13:33:12;13.00;;;8.90;;
59093;SDS011;44880;52.814;18.270;2023-04-01T13:35:51;13.50;;;8.30;;
59093;SDS011;44880;52.814;18.270;2023-04-01T13:38:40;12.50;;;8.40;;
59093;SDS011;44880;52.814;18.270;2023-04-01T13:41:29;12.20;;;8.00;;
59093;SDS011;44880;52.814;18.270;2023-04-01T13:44:28;12.10;;;8.40;;
59093;SDS011;44880;52.814;18.270;2023-04-01T13:50:25;11.70;;;7.40;;
59093;SDS011;44880;52.814;18.270;2023-04-01T13:53:28;10.50;;;7.00;;
59093;SDS011;44880;52.814;18.270;2023-04-01T13:56:14;12.20;;;7.30;;
59093;SDS011;44880;52.814;18.270;2023-04-01T13:59:07;11.20;;;7.60;;
59093;SDS011;44880;52.814;18.270;2023-04-01T14:01:57;11.70;;;7.10;;
59093;SDS011;44880;52.814;18.270;2023-04-01T14:04:49;11.40;;;7.70;;
59093;SDS011;44880;52.814;18.270;2023-04-01T14:07:35;10.60;;;7.10;;
59093;SDS011;44880;52.814;18.270;2023-04-01T14:10:25;10.60;;;6.50;;
59093;SDS011;44880;52.814;18.270;2023-04-01T14:13:06;9.80;;;6.30;;
59093;SDS011;44880;52.814;18.270;2023-04-01T14:16:17;11.10;;;7.10;;
59093;SDS011;44880;52.814;18.270;2023-04-01T14:19:14;10.70;;;6.80;;
59093;SDS011;44880;52.814;18.270;2023-04-01T14:21:57;11.10;;;7.00;;
59093;SDS011;44880;52.814;18.270;2023-04-01T14:24:42;13.30;;;6.80;;
59093;SDS011;44880;52.814;18.270;2023-04-01T14:27:27;11.10;;;7.40;;
59093;SDS011;44880;52.814;18.270;2023-04-01T14:30:12;11.40;;;7.70;;
59093;SDS011;44880;52.814;18.270;2023-04-01T14:33:09;12.10;;;8.70;;
59093;SDS011;44880;52.814;18.270;2023-04-01T14:35:52;13.10;;;9.20;;
59093;SDS011;44880;52.814;18.270;2023-04-01T14:38:47;14.00;;;9.70;;
59093;SDS011;44880;52.814;18.270;2023-04-01T14:41:30;13.10;;;8.90;;
59093;SDS011;44880;52.814;18.270;2023-04-01T14:44:22;13.20;;;9.40;;
59093;SDS011;44880;52.814;18.270;2023-04-01T14:50:04;12.20;;;8.60;;
59093;SDS011;44880;52.814;18.270;2023-04-01T14:52:46;12.20;;;7.90;;
59093;SDS011;44880;52.814;18.270;2023-04-01T14:55:34;13.30;;;9.60;;
59093;SDS011;44880;52.814;18.270;2023-04-01T14:58:14;13.80;;;9.60;;
59093;SDS011;44880;52.814;18.270;2023-04-01T15:01:00;12.00;;;8.10;;
59093;SDS011;44880;52.814;18.270;2023-04-01T15:03:45;13.30;;;9.10;;
59093;SDS011;44880;52.814;18.270;2023-04-01T15:06:50;12.60;;;9.40;;
59093;SDS011;44880;52.814;18.270;2023-04-01T15:09:30;14.00;;;9.80;;
59093;SDS011;44880;52.814;18.270;2023-04-01T15:12:19;13.70;;;9.90;;
59093;SDS011;44880;52.814;18.270;2023-04-01T15:15:02;15.90;;;10.60;;
59093;SDS011;44880;52.814;18.270;2023-04-01T15:18:13;17.60;;;12.00;;
59093;SDS011;44880;52.814;18.270;2023-04-01T15:21:10;15.10;;;10.70;;
59093;SDS011;44880;52.814;18.270;2023-04-01T15:23:51;16.90;;;10.90;;
59093;SDS011;44880;52.814;18.270;2023-04-01T15:29:41;15.40;;;9.90;;
59093;SDS011;44880;52.814;18.270;2023-04-01T15:32:58;13.60;;;8.50;;
59093;SDS011;44880;52.814;18.270;2023-04-01T15:36:07;15.10;;;9.70;;
59093;SDS011;44880;52.814;18.270;2023-04-01T15:41:45;14.70;;;9.40;;
59093;SDS011;44880;52.814;18.270;2023-04-01T15:44:50;14.30;;;9.00;;
59093;SDS011;44880;52.814;18.270;2023-04-01T15:47:33;14.60;;;9.50;;
59093;SDS011;44880;52.814;18.270;2023-04-01T15:53:24;15.20;;;9.40;;
59093;SDS011;44880;52.814;18.270;2023-04-01T16:03:13;15.80;;;10.00;;
59093;SDS011;44880;52.814;18.270;2023-04-01T16:09:09;15.00;;;10.00;;
59093;SDS011;44880;52.814;18.270;2023-04-01T16:12:04;16.20;;;10.10;;
59093;SDS011;44880;52.814;18.270;2023-04-01T16:14:41;14.20;;;9.20;;
59093;SDS011;44880;52.814;18.270;2023-04-01T16:17:31;14.60;;;9.90;;
59093;SDS011;44880;52.814;18.270;2023-04-01T16:20:23;15.90;;;10.40;;
59093;SDS011;44880;52.814;18.270;2023-04-01T16:23:15;18.60;;;11.20;;
59093;SDS011;44880;52.814;18.270;2023-04-01T16:25:57;18.60;;;11.70;;
59093;SDS011;44880;52.814;18.270;2023-04-01T16:31:08;17.70;;;12.30;;
59093;SDS011;44880;52.814;18.270;2023-04-01T16:33:46;16.90;;;11.40;;
59093;SDS011;44880;52.814;18.270;2023-04-01T16:36:24;16.40;;;11.30;;
59093;SDS011;44880;52.814;18.270;2023-04-01T16:39:06;17.20;;;12.30;;
59093;SDS011;44880;52.814;18.270;2023-04-01T16:41:51;16.10;;;10.10;;
59093;SDS011;44880;52.814;18.270;2023-04-01T16:44:43;14.10;;;10.20;;
59093;SDS011;44880;52.814;18.270;2023-04-01T16:47:21;16.40;;;11.40;;
59093;SDS011;44880;52.814;18.270;2023-04-01T16:50:05;16.10;;;10.90;;
59093;SDS011;44880;52.814;18.270;2023-04-01T16:52:51;17.30;;;10.90;;
59093;SDS011;44880;52.814;18.270;2023-04-01T16:55:42;17.80;;;12.60;;
59093;SDS011;44880;52.814;18.270;2023-04-01T16:58:20;19.10;;;13.20;;
59093;SDS011;44880;52.814;18.270;2023-04-01T17:01:05;19.00;;;12.40;;
59093;SDS011;44880;52.814;18.270;2023-04-01T17:03:44;18.30;;;12.80;;
59093;SDS011;44880;52.814;18.270;2023-04-01T17:06:25;20.30;;;13.70;;
59093;SDS011;44880;52.814;18.270;2023-04-01T17:09:05;20.80;;;14.20;;
59093;SDS011;44880;52.814;18.270;2023-04-01T17:11:57;20.20;;;13.20;;
59093;SDS011;44880;52.814;18.270;2023-04-01T17:14:37;16.30;;;10.80;;
59093;SDS011;44880;52.814;18.270;2023-04-01T17:17:40;16.40;;;11.60;;
59093;SDS011;44880;52.814;18.270;2023-04-01T17:25:51;14.00;;;8.10;;
59093;SDS011;44880;52.814;18.270;2023-04-01T17:28:41;14.10;;;8.50;;
59093;SDS011;44880;52.814;18.270;2023-04-01T17:31:30;12.90;;;8.10;;
59093;SDS011;44880;52.814;18.270;2023-04-01T17:37:09;13.70;;;7.50;;
59093;SDS011;44880;52.814;18.270;2023-04-01T17:40:14;12.70;;;7.10;;
59093;SDS011;44880;52.814;18.270;2023-04-01T17:42:58;12.20;;;6.90;;
59093;SDS011;44880;52.814;18.270;2023-04-01T17:45:41;13.10;;;7.20;;